sensor_id;sensor_type;location;lat;lon;timestamp;P1;durP1;ratioP1;P2;durP2;ratioP2
14760;SDS011;7472;45.396;5.272;2023-11-21T00:00:00;10.45;;;5.07;;
14760;SDS011;7472;45.396;5.272;2023-11-21T00:02:28;7.40;;;4.32;;
14760;SDS011;7472;45.396;5.272;2023-11-21T00:04:55;8.20;;;4.78;;
14760;SDS011;7472;45.396;5.272;2023-11-21T00:07:22;4.68;;;3.85;;
14760;SDS011;7472;45.396;5.272;2023-11-21T00:09:50;6.55;;;3.78;;
14760;SDS011;7472;45.396;5.272;2023-11-21T00:12:17;5.15;;;3.30;;
14760;SDS011;7472;45.396;5.272;2023-11-21T00:14:47;7.10;;;3.17;;
14760;SDS011;7472;45.396;5.272;2023-11-21T00:17:14;5.03;;;3.47;;
14760;SDS011;7472;45.396;5.272;2023-11-21T00:19:41;4.05;;;2.50;;
14760;SDS011;7472;45.396;5.272;2023-11-21T00:22:09;4.45;;;3.13;;
14760;SDS011;7472;45.396;5.272;2023-11-21T00:24:36;10.07;;;3.28;;
14760;SDS011;7472;45.396;5.272;2023-11-21T00:27:03;8.13;;;3.28;;
14760;SDS011;7472;45.396;5.272;2023-11-21T00:29:31;6.57;;;3.03;;
14760;SDS011;7472;45.396;5.272;2023-11-21T00:31:59;4.97;;;3.72;;
14760;SDS011;7472;45.396;5.272;2023-11-21T00:34:27;6.15;;;3.20;;
14760;SDS011;7472;45.396;5.272;2023-11-21T00:36:54;7.55;;;3.53;;
14760;SDS011;7472;45.396;5.272;2023-11-21T00:39:22;7.70;;;3.50;;
14760;SDS011;7472;45.396;5.272;2023-11-21T00:41:51;7.32;;;3.25;;
14760;SDS011;7472;45.396;5.272;2023-11-21T00:44:19;7.07;;;3.40;;
14760;SDS011;7472;45.396;5.272;2023-11-21T00:46:46;6.80;;;3.85;;
14760;SDS011;7472;45.396;5.272;2023-11-21T00:49:15;6.03;;;3.20;;
14760;SDS011;7472;45.396;5.272;2023-11-21T00:51:42;9.68;;;3.30;;
14760;SDS011;7472;45.396;5.272;2023-11-21T00:54:09;4.57;;;3.20;;
14760;SDS011;7472;45.396;5.272;2023-11-21T00:56:37;7.00;;;3.38;;
14760;SDS011;7472;45.396;5.272;2023-11-21T00:59:05;6.78;;;3.25;;
14760;SDS011;7472;45.396;5.272;2023-11-21T01:01:32;5.53;;;2.55;;
14760;SDS011;7472;45.396;5.272;2023-11-21T01:03:59;8.30;;;3.10;;
14760;SDS011;7472;45.396;5.272;2023-11-21T01:06:29;6.53;;;2.58;;
14760;SDS011;7472;45.396;5.272;2023-11-21T01:08:56;6.18;;;2.53;;
14760;SDS011;7472;45.396;5.272;2023-11-21T01:11:24;4.85;;;2.58;;
14760;SDS011;7472;45.396;5.272;2023-11-21T01:13:51;5.05;;;2.53;;
14760;SDS011;7472;45.396;5.272;2023-11-21T01:16:18;7.68;;;3.25;;
14760;SDS011;7472;45.396;5.272;2023-11-21T01:18:46;4.75;;;2.30;;
14760;SDS011;7472;45.396;5.272;2023-11-21T01:21:13;6.88;;;2.20;;
14760;SDS011;7472;45.396;5.272;2023-11-21T01:23:42;6.70;;;2.42;;
14760;SDS011;7472;45.396;5.272;2023-11-21T01:26:09;6.25;;;2.00;;
14760;SDS011;7472;45.396;5.272;2023-11-21T01:28:37;9.80;;;2.25;;
14760;SDS011;7472;45.396;5.272;2023-11-21T01:31:04;4.80;;;2.10;;
14760;SDS011;7472;45.396;5.272;2023-11-21T01:33:32;6.40;;;2.33;;
14760;SDS011;7472;45.396;5.272;2023-11-21T01:35:59;9.27;;;2.85;;
14760;SDS011;7472;45.396;5.272;2023-11-21T01:38:26;3.72;;;2.30;;
14760;SDS011;7472;45.396;5.272;2023-11-21T01:40:55;6.85;;;3.28;;
14760;SDS011;7472;45.396;5.272;2023-11-21T01:43:25;7.03;;;2.67;;
14760;SDS011;7472;45.396;5.272;2023-11-21T01:45:53;7.20;;;2.50;;
14760;SDS011;7472;45.396;5.272;2023-11-21T01:48:22;8.50;;;2.67;;
14760;SDS011;7472;45.396;5.272;2023-11-21T01:50:49;4.70;;;2.42;;
14760;SDS011;7472;45.396;5.272;2023-11-21T01:53:16;6.70;;;2.67;;
14760;SDS011;7472;45.396;5.272;2023-11-21T01:55:44;7.50;;;2.65;;
14760;SDS011;7472;45.396;5.272;2023-11-21T01:58:13;5.47;;;2.28;;
14760;SDS011;7472;45.396;5.272;2023-11-21T02:00:41;10.68;;;2.20;;
14760;SDS011;7472;45.396;5.272;2023-11-21T02:03:09;9.55;;;2.78;;
14760;SDS011;7472;45.396;5.272;2023-11-21T02:05:37;6.40;;;3.10;;
14760;SDS011;7472;45.396;5.272;2023-11-21T02:08:04;5.72;;;2.80;;
14760;SDS011;7472;45.396;5.272;2023-11-21T02:10:34;11.32;;;2.63;;
14760;SDS011;7472;45.396;5.272;2023-11-21T02:13:02;5.88;;;2.40;;
14760;SDS011;7472;45.396;5.272;2023-11-21T02:15:32;4.70;;;2.60;;
14760;SDS011;7472;45.396;5.272;2023-11-21T02:18:00;6.45;;;2.17;;
14760;SDS011;7472;45.396;5.272;2023-11-21T02:20:28;7.90;;;2.88;;
14760;SDS011;7472;45.396;5.272;2023-11-21T02:22:57;7.80;;;2.53;;
14760;SDS011;7472;45.396;5.272;2023-11-21T02:25:25;9.77;;;2.90;;
14760;SDS011;7472;45.396;5.272;2023-11-21T02:27:53;5.90;;;2.45;;
14760;SDS011;7472;45.396;5.272;2023-11-21T02:30:20;4.72;;;2.30;;
14760;SDS011;7472;45.396;5.272;2023-11-21T02:32:48;5.38;;;2.42;;
14760;SDS011;7472;45.396;5.272;2023-11-21T02:35:18;6.90;;;2.60;;
14760;SDS011;7472;45.396;5.272;2023-11-21T02:37:46;9.73;;;2.92;;
14760;SDS011;7472;45.396;5.272;2023-11-21T02:40:14;5.47;;;2.45;;
14760;SDS011;7472;45.396;5.272;2023-11-21T02:42:43;9.38;;;3.78;;
14760;SDS011;7472;45.396;5.272;2023-11-21T02:45:10;6.43;;;2.63;;
14760;SDS011;7472;45.396;5.272;2023-11-21T02:47:38;7.40;;;2.90;;
14760;SDS011;7472;45.396;5.272;2023-11-21T02:50:06;9.88;;;3.10;;
14760;SDS011;7472;45.396;5.272;2023-11-21T02:52:34;6.05;;;2.70;;
14760;SDS011;7472;45.396;5.272;2023-11-21T02:55:01;10.70;;;3.45;;
14760;SDS011;7472;45.396;5.272;2023-11-21T02:57:30;7.63;;;2.70;;
14760;SDS011;7472;45.396;5.272;2023-11-21T02:59:58;9.13;;;3.03;;
14760;SDS011;7472;45.396;5.272;2023-11-21T03:02:25;7.90;;;2.88;;
14760;SDS011;7472;45.396;5.272;2023-11-21T03:04:53;7.07;;;2.70;;
14760;SDS011;7472;45.396;5.272;2023-11-21T03:07:20;11.82;;;2.60;;
14760;SDS011;7472;45.396;5.272;2023-11-21T03:09:47;5.50;;;2.75;;
14760;SDS011;7472;45.396;5.272;2023-11-21T03:12:15;8.07;;;3.45;;
14760;SDS011;7472;45.396;5.272;2023-11-21T03:14:44;9.40;;;3.85;;
14760;SDS011;7472;45.396;5.272;2023-11-21T03:17:11;8.77;;;3.65;;
14760;SDS011;7472;45.396;5.272;2023-11-21T03:19:41;8.25;;;3.33;;
14760;SDS011;7472;45.396;5.272;2023-11-21T03:22:08;5.75;;;2.47;;
14760;SDS011;7472;45.396;5.272;2023-11-21T03:24:36;9.32;;;4.10;;
14760;SDS011;7472;45.396;5.272;2023-11-21T03:27:04;8.32;;;3.15;;
14760;SDS011;7472;45.396;5.272;2023-11-21T03:29:31;9.77;;;3.33;;
14760;SDS011;7472;45.396;5.272;2023-11-21T03:32:00;4.13;;;3.13;;
14760;SDS011;7472;45.396;5.272;2023-11-21T03:34:27;8.52;;;3.40;;
14760;SDS011;7472;45.396;5.272;2023-11-21T03:36:55;8.40;;;2.80;;
14760;SDS011;7472;45.396;5.272;2023-11-21T03:39:23;9.25;;;2.97;;
14760;SDS011;7472;45.396;5.272;2023-11-21T03:41:51;6.25;;;2.60;;
14760;SDS011;7472;45.396;5.272;2023-11-21T03:44:18;5.20;;;2.80;;
14760;SDS011;7472;45.396;5.272;2023-11-21T03:46:47;6.43;;;2.38;;
14760;SDS011;7472;45.396;5.272;2023-11-21T03:49:16;5.97;;;2.60;;
14760;SDS011;7472;45.396;5.272;2023-11-21T03:51:43;10.00;;;2.95;;
14760;SDS011;7472;45.396;5.272;2023-11-21T03:54:10;6.10;;;2.72;;
14760;SDS011;7472;45.396;5.272;2023-11-21T03:56:39;6.28;;;2.38;;
14760;SDS011;7472;45.396;5.272;2023-11-21T03:59:06;10.20;;;2.88;;
14760;SDS011;7472;45.396;5.272;2023-11-21T04:01:34;8.80;;;3.42;;
14760;SDS011;7472;45.396;5.272;2023-11-21T04:04:01;9.70;;;3.30;;
14760;SDS011;7472;45.396;5.272;2023-11-21T04:06:30;9.52;;;3.88;;
14760;SDS011;7472;45.396;5.272;2023-11-21T04:08:58;11.73;;;4.50;;
14760;SDS011;7472;45.396;5.272;2023-11-21T04:11:25;5.72;;;2.80;;
14760;SDS011;7472;45.396;5.272;2023-11-21T04:13:55;8.07;;;3.22;;
14760;SDS011;7472;45.396;5.272;2023-11-21T04:16:22;5.35;;;2.58;;
14760;SDS011;7472;45.396;5.272;2023-11-21T04:18:49;6.05;;;3.13;;
14760;SDS011;7472;45.396;5.272;2023-11-21T04:21:17;10.20;;;3.03;;
14760;SDS011;7472;45.396;5.272;2023-11-21T04:23:45;6.35;;;2.13;;
14760;SDS011;7472;45.396;5.272;2023-11-21T04:26:13;4.25;;;2.08;;
14760;SDS011;7472;45.396;5.272;2023-11-21T04:28:40;11.20;;;2.80;;
14760;SDS011;7472;45.396;5.272;2023-11-21T04:31:08;6.32;;;2.70;;
14760;SDS011;7472;45.396;5.272;2023-11-21T04:33:35;4.90;;;2.33;;
14760;SDS011;7472;45.396;5.272;2023-11-21T04:36:03;5.95;;;2.38;;
14760;SDS011;7472;45.396;5.272;2023-11-21T04:38:30;5.00;;;2.13;;
14760;SDS011;7472;45.396;5.272;2023-11-21T04:40:59;6.88;;;3.70;;
14760;SDS011;7472;45.396;5.272;2023-11-21T04:43:27;4.47;;;2.38;;
14760;SDS011;7472;45.396;5.272;2023-11-21T04:45:54;6.65;;;2.15;;
14760;SDS011;7472;45.396;5.272;2023-11-21T04:48:21;6.25;;;2.90;;
14760;SDS011;7472;45.396;5.272;2023-11-21T04:50:49;7.57;;;2.60;;
14760;SDS011;7472;45.396;5.272;2023-11-21T04:53:16;5.82;;;2.60;;
14760;SDS011;7472;45.396;5.272;2023-11-21T04:55:44;7.15;;;2.55;;
14760;SDS011;7472;45.396;5.272;2023-11-21T04:58:13;5.95;;;2.60;;
14760;SDS011;7472;45.396;5.272;2023-11-21T05:00:40;4.20;;;2.67;;
14760;SDS011;7472;45.396;5.272;2023-11-21T05:03:09;7.72;;;2.78;;
14760;SDS011;7472;45.396;5.272;2023-11-21T05:05:37;5.38;;;2.88;;
14760;SDS011;7472;45.396;5.272;2023-11-21T05:08:04;5.55;;;2.70;;
14760;SDS011;7472;45.396;5.272;2023-11-21T05:10:31;6.78;;;2.90;;
14760;SDS011;7472;45.396;5.272;2023-11-21T05:12:59;4.20;;;3.13;;
14760;SDS011;7472;45.396;5.272;2023-11-21T05:15:28;5.22;;;3.90;;
14760;SDS011;7472;45.396;5.272;2023-11-21T05:17:56;8.45;;;3.58;;
14760;SDS011;7472;45.396;5.272;2023-11-21T05:20:25;5.82;;;3.20;;
14760;SDS011;7472;45.396;5.272;2023-11-21T05:22:52;7.85;;;3.75;;
14760;SDS011;7472;45.396;5.272;2023-11-21T05:25:19;6.20;;;3.65;;
14760;SDS011;7472;45.396;5.272;2023-11-21T05:27:47;6.45;;;3.35;;
14760;SDS011;7472;45.396;5.272;2023-11-21T05:30:14;4.03;;;2.28;;
14760;SDS011;7472;45.396;5.272;2023-11-21T05:32:43;7.32;;;3.25;;
14760;SDS011;7472;45.396;5.272;2023-11-21T05:35:11;6.78;;;3.88;;
14760;SDS011;7472;45.396;5.272;2023-11-21T05:37:40;10.43;;;4.25;;
14760;SDS011;7472;45.396;5.272;2023-11-21T05:40:08;8.00;;;4.07;;
14760;SDS011;7472;45.396;5.272;2023-11-21T05:42:36;12.85;;;5.03;;
14760;SDS011;7472;45.396;5.272;2023-11-21T05:45:04;12.57;;;5.10;;
14760;SDS011;7472;45.396;5.272;2023-11-21T05:47:36;11.50;;;5.93;;
14760;SDS011;7472;45.396;5.272;2023-11-21T05:50:06;12.32;;;5.45;;
14760;SDS011;7472;45.396;5.272;2023-11-21T05:52:37;9.85;;;6.82;;
14760;SDS011;7472;45.396;5.272;2023-11-21T05:55:05;15.18;;;8.07;;
14760;SDS011;7472;45.396;5.272;2023-11-21T05:57:32;14.50;;;7.75;;
14760;SDS011;7472;45.396;5.272;2023-11-21T06:00:02;24.17;;;8.52;;
14760;SDS011;7472;45.396;5.272;2023-11-21T06:02:29;19.85;;;9.48;;
14760;SDS011;7472;45.396;5.272;2023-11-21T06:04:57;13.13;;;9.98;;
14760;SDS011;7472;45.396;5.272;2023-11-21T06:07:25;14.75;;;8.75;;
14760;SDS011;7472;45.396;5.272;2023-11-21T06:09:53;15.73;;;9.25;;
14760;SDS011;7472;45.396;5.272;2023-11-21T06:12:20;17.42;;;8.85;;
14760;SDS011;7472;45.396;5.272;2023-11-21T06:14:48;12.70;;;8.98;;
14760;SDS011;7472;45.396;5.272;2023-11-21T06:17:15;12.60;;;8.75;;
14760;SDS011;7472;45.396;5.272;2023-11-21T06:19:43;15.02;;;9.15;;
14760;SDS011;7472;45.396;5.272;2023-11-21T06:22:11;11.82;;;9.25;;
14760;SDS011;7472;45.396;5.272;2023-11-21T06:24:40;14.77;;;8.75;;
14760;SDS011;7472;45.396;5.272;2023-11-21T06:27:07;12.35;;;8.00;;
14760;SDS011;7472;45.396;5.272;2023-11-21T06:29:34;24.08;;;18.67;;
14760;SDS011;7472;45.396;5.272;2023-11-21T06:32:02;16.30;;;13.45;;
14760;SDS011;7472;45.396;5.272;2023-11-21T06:34:30;15.60;;;8.88;;
14760;SDS011;7472;45.396;5.272;2023-11-21T06:36:57;12.45;;;9.63;;
14760;SDS011;7472;45.396;5.272;2023-11-21T06:39:24;11.18;;;9.13;;
14760;SDS011;7472;45.396;5.272;2023-11-21T06:41:54;13.65;;;9.20;;
14760;SDS011;7472;45.396;5.272;2023-11-21T06:44:21;17.65;;;8.65;;
14760;SDS011;7472;45.396;5.272;2023-11-21T06:46:48;16.67;;;8.32;;
14760;SDS011;7472;45.396;5.272;2023-11-21T06:49:16;13.48;;;9.15;;
14760;SDS011;7472;45.396;5.272;2023-11-21T06:51:44;28.13;;;10.18;;
14760;SDS011;7472;45.396;5.272;2023-11-21T06:54:12;35.53;;;10.32;;
14760;SDS011;7472;45.396;5.272;2023-11-21T06:56:39;13.55;;;9.80;;
14760;SDS011;7472;45.396;5.272;2023-11-21T06:59:08;36.72;;;33.20;;
14760;SDS011;7472;45.396;5.272;2023-11-21T07:01:36;22.73;;;12.65;;
14760;SDS011;7472;45.396;5.272;2023-11-21T07:04:04;12.05;;;7.13;;
14760;SDS011;7472;45.396;5.272;2023-11-21T07:06:32;9.65;;;7.53;;
14760;SDS011;7472;45.396;5.272;2023-11-21T07:08:59;13.63;;;7.30;;
14760;SDS011;7472;45.396;5.272;2023-11-21T07:11:28;24.92;;;15.15;;
14760;SDS011;7472;45.396;5.272;2023-11-21T07:13:55;20.30;;;18.10;;
14760;SDS011;7472;45.396;5.272;2023-11-21T07:16:24;13.57;;;10.02;;
14760;SDS011;7472;45.396;5.272;2023-11-21T07:18:52;22.90;;;7.97;;
14760;SDS011;7472;45.396;5.272;2023-11-21T07:21:20;21.70;;;10.68;;
14760;SDS011;7472;45.396;5.272;2023-11-21T07:23:47;140.00;;;13.32;;
14760;SDS011;7472;45.396;5.272;2023-11-21T07:26:14;28.90;;;8.63;;
14760;SDS011;7472;45.396;5.272;2023-11-21T07:28:42;24.70;;;15.18;;
14760;SDS011;7472;45.396;5.272;2023-11-21T07:31:10;20.48;;;10.02;;
14760;SDS011;7472;45.396;5.272;2023-11-21T07:33:39;15.68;;;6.38;;
14760;SDS011;7472;45.396;5.272;2023-11-21T07:36:06;9.30;;;5.65;;
14760;SDS011;7472;45.396;5.272;2023-11-21T07:38:35;11.60;;;6.13;;
14760;SDS011;7472;45.396;5.272;2023-11-21T07:41:03;13.32;;;7.95;;
14760;SDS011;7472;45.396;5.272;2023-11-21T07:43:30;9.68;;;6.15;;
14760;SDS011;7472;45.396;5.272;2023-11-21T07:46:00;12.32;;;7.53;;
14760;SDS011;7472;45.396;5.272;2023-11-21T07:48:28;16.30;;;8.15;;
14760;SDS011;7472;45.396;5.272;2023-11-21T07:50:57;13.70;;;7.28;;
14760;SDS011;7472;45.396;5.272;2023-11-21T07:53:25;18.13;;;8.68;;
14760;SDS011;7472;45.396;5.272;2023-11-21T07:55:54;15.35;;;7.78;;
14760;SDS011;7472;45.396;5.272;2023-11-21T07:58:21;9.38;;;6.60;;
14760;SDS011;7472;45.396;5.272;2023-11-21T08:00:49;11.65;;;6.10;;
14760;SDS011;7472;45.396;5.272;2023-11-21T08:03:16;9.88;;;5.32;;
14760;SDS011;7472;45.396;5.272;2023-11-21T08:05:43;12.35;;;5.40;;
14760;SDS011;7472;45.396;5.272;2023-11-21T08:08:12;9.73;;;5.85;;
14760;SDS011;7472;45.396;5.272;2023-11-21T08:10:40;9.85;;;5.93;;
14760;SDS011;7472;45.396;5.272;2023-11-21T08:13:08;11.00;;;7.57;;
14760;SDS011;7472;45.396;5.272;2023-11-21T08:15:39;12.88;;;7.00;;
14760;SDS011;7472;45.396;5.272;2023-11-21T08:18:11;15.20;;;7.10;;
14760;SDS011;7472;45.396;5.272;2023-11-21T08:20:40;15.55;;;8.93;;
14760;SDS011;7472;45.396;5.272;2023-11-21T08:23:07;14.63;;;8.45;;
14760;SDS011;7472;45.396;5.272;2023-11-21T08:25:36;13.57;;;7.75;;
14760;SDS011;7472;45.396;5.272;2023-11-21T08:28:03;16.50;;;13.30;;
14760;SDS011;7472;45.396;5.272;2023-11-21T08:30:31;12.68;;;9.02;;
14760;SDS011;7472;45.396;5.272;2023-11-21T08:33:00;11.10;;;5.70;;
14760;SDS011;7472;45.396;5.272;2023-11-21T08:35:28;10.27;;;5.47;;
14760;SDS011;7472;45.396;5.272;2023-11-21T08:37:55;5.03;;;4.43;;
14760;SDS011;7472;45.396;5.272;2023-11-21T08:40:23;7.78;;;4.50;;
14760;SDS011;7472;45.396;5.272;2023-11-21T08:42:51;6.22;;;4.15;;
14760;SDS011;7472;45.396;5.272;2023-11-21T08:45:20;7.30;;;4.47;;
14760;SDS011;7472;45.396;5.272;2023-11-21T08:47:47;11.82;;;10.82;;
14760;SDS011;7472;45.396;5.272;2023-11-21T08:50:15;11.32;;;10.20;;
14760;SDS011;7472;45.396;5.272;2023-11-21T08:52:43;8.07;;;7.18;;
14760;SDS011;7472;45.396;5.272;2023-11-21T08:55:11;11.27;;;10.18;;
14760;SDS011;7472;45.396;5.272;2023-11-21T08:57:39;11.98;;;8.25;;
14760;SDS011;7472;45.396;5.272;2023-11-21T09:00:08;24.55;;;4.30;;
14760;SDS011;7472;45.396;5.272;2023-11-21T09:02:37;8.82;;;5.57;;
14760;SDS011;7472;45.396;5.272;2023-11-21T09:05:04;4.25;;;3.83;;
14760;SDS011;7472;45.396;5.272;2023-11-21T09:07:32;4.50;;;3.20;;
14760;SDS011;7472;45.396;5.272;2023-11-21T09:09:59;2.63;;;2.42;;
14760;SDS011;7472;45.396;5.272;2023-11-21T09:12:27;3.97;;;3.35;;
14760;SDS011;7472;45.396;5.272;2023-11-21T09:14:54;3.28;;;2.97;;
14760;SDS011;7472;45.396;5.272;2023-11-21T09:17:23;4.75;;;2.83;;
14760;SDS011;7472;45.396;5.272;2023-11-21T09:19:50;3.08;;;2.78;;
14760;SDS011;7472;45.396;5.272;2023-11-21T09:22:18;4.13;;;3.13;;
14760;SDS011;7472;45.396;5.272;2023-11-21T09:24:45;5.43;;;3.78;;
14760;SDS011;7472;45.396;5.272;2023-11-21T09:27:13;5.70;;;4.20;;
14760;SDS011;7472;45.396;5.272;2023-11-21T09:29:42;4.75;;;3.63;;
14760;SDS011;7472;45.396;5.272;2023-11-21T09:32:09;4.15;;;3.65;;
14760;SDS011;7472;45.396;5.272;2023-11-21T09:34:41;3.03;;;2.72;;
14760;SDS011;7472;45.396;5.272;2023-11-21T09:37:08;5.55;;;4.97;;
14760;SDS011;7472;45.396;5.272;2023-11-21T09:39:35;6.03;;;5.53;;
14760;SDS011;7472;45.396;5.272;2023-11-21T09:42:04;8.80;;;5.28;;
14760;SDS011;7472;45.396;5.272;2023-11-21T09:44:36;4.90;;;4.50;;
14760;SDS011;7472;45.396;5.272;2023-11-21T09:47:07;5.75;;;5.13;;
14760;SDS011;7472;45.396;5.272;2023-11-21T09:49:35;7.35;;;6.65;;
14760;SDS011;7472;45.396;5.272;2023-11-21T09:52:06;8.77;;;7.97;;
14760;SDS011;7472;45.396;5.272;2023-11-21T09:54:36;4.28;;;3.97;;
14760;SDS011;7472;45.396;5.272;2023-11-21T09:57:04;4.78;;;4.25;;
14760;SDS011;7472;45.396;5.272;2023-11-21T09:59:32;4.43;;;4.03;;
14760;SDS011;7472;45.396;5.272;2023-11-21T10:02:01;4.63;;;4.22;;
14760;SDS011;7472;45.396;5.272;2023-11-21T10:04:28;4.47;;;3.33;;
14760;SDS011;7472;45.396;5.272;2023-11-21T10:06:56;3.70;;;3.40;;
14760;SDS011;7472;45.396;5.272;2023-11-21T10:09:24;2.85;;;2.17;;
14760;SDS011;7472;45.396;5.272;2023-11-21T10:11:53;1.75;;;1.65;;
14760;SDS011;7472;45.396;5.272;2023-11-21T10:14:22;1.23;;;1.15;;
14760;SDS011;7472;45.396;5.272;2023-11-21T10:16:54;0.52;;;0.52;;
14760;SDS011;7472;45.396;5.272;2023-11-21T10:19:22;1.40;;;1.30;;
14760;SDS011;7472;45.396;5.272;2023-11-21T10:21:51;0.85;;;0.85;;
14760;SDS011;7472;45.396;5.272;2023-11-21T10:24:19;0.60;;;0.60;;
14760;SDS011;7472;45.396;5.272;2023-11-21T10:26:48;0.50;;;0.50;;
14760;SDS011;7472;45.396;5.272;2023-11-21T10:29:17;1.23;;;0.98;;
14760;SDS011;7472;45.396;5.272;2023-11-21T10:31:48;0.52;;;0.52;;
14760;SDS011;7472;45.396;5.272;2023-11-21T10:34:16;1.02;;;0.93;;
14760;SDS011;7472;45.396;5.272;2023-11-21T10:36:44;0.40;;;0.40;;
14760;SDS011;7472;45.396;5.272;2023-11-21T10:39:13;0.90;;;0.90;;
14760;SDS011;7472;45.396;5.272;2023-11-21T10:41:44;1.23;;;0.93;;
14760;SDS011;7472;45.396;5.272;2023-11-21T10:44:14;0.77;;;0.70;;
14760;SDS011;7472;45.396;5.272;2023-11-21T10:46:45;0.65;;;0.65;;
14760;SDS011;7472;45.396;5.272;2023-11-21T10:49:15;0.38;;;0.38;;
14760;SDS011;7472;45.396;5.272;2023-11-21T10:51:43;1.25;;;0.75;;
14760;SDS011;7472;45.396;5.272;2023-11-21T10:54:11;0.45;;;0.45;;
14760;SDS011;7472;45.396;5.272;2023-11-21T10:56:38;0.73;;;0.70;;
14760;SDS011;7472;45.396;5.272;2023-11-21T10:59:08;1.40;;;0.90;;
14760;SDS011;7472;45.396;5.272;2023-11-21T11:01:41;0.70;;;0.70;;
14760;SDS011;7472;45.396;5.272;2023-11-21T11:04:09;2.45;;;1.00;;
14760;SDS011;7472;45.396;5.272;2023-11-21T11:06:41;0.75;;;0.75;;
14760;SDS011;7472;45.396;5.272;2023-11-21T11:09:10;0.80;;;0.80;;
14760;SDS011;7472;45.396;5.272;2023-11-21T11:11:39;1.00;;;0.68;;
14760;SDS011;7472;45.396;5.272;2023-11-21T11:14:10;1.48;;;1.13;;
14760;SDS011;7472;45.396;5.272;2023-11-21T11:16:38;0.98;;;0.90;;
14760;SDS011;7472;45.396;5.272;2023-11-21T11:19:07;1.10;;;1.08;;
14760;SDS011;7472;45.396;5.272;2023-11-21T11:21:39;0.90;;;0.90;;
14760;SDS011;7472;45.396;5.272;2023-11-21T11:24:14;0.98;;;0.90;;
14760;SDS011;7472;45.396;5.272;2023-11-21T11:26:47;1.25;;;1.10;;
14760;SDS011;7472;45.396;5.272;2023-11-21T11:29:19;1.80;;;1.17;;
14760;SDS011;7472;45.396;5.272;2023-11-21T11:31:53;2.00;;;1.20;;
14760;SDS011;7472;45.396;5.272;2023-11-21T11:34:26;4.35;;;1.17;;
14760;SDS011;7472;45.396;5.272;2023-11-21T11:36:59;1.67;;;1.50;;
14760;SDS011;7472;45.396;5.272;2023-11-21T11:39:28;1.73;;;1.40;;
14760;SDS011;7472;45.396;5.272;2023-11-21T11:41:55;2.28;;;1.98;;
14760;SDS011;7472;45.396;5.272;2023-11-21T11:47:23;2.22;;;1.83;;
14760;SDS011;7472;45.396;5.272;2023-11-21T11:50:02;2.95;;;2.08;;
14760;SDS011;7472;45.396;5.272;2023-11-21T11:52:32;3.47;;;2.42;;
14760;SDS011;7472;45.396;5.272;2023-11-21T11:55:00;5.07;;;2.28;;
14760;SDS011;7472;45.396;5.272;2023-11-21T11:57:29;3.28;;;2.72;;
14760;SDS011;7472;45.396;5.272;2023-11-21T12:00:07;1.33;;;1.23;;
14760;SDS011;7472;45.396;5.272;2023-11-21T12:02:35;2.10;;;1.45;;
14760;SDS011;7472;45.396;5.272;2023-11-21T12:05:08;1.92;;;1.70;;
14760;SDS011;7472;45.396;5.272;2023-11-21T12:07:39;2.75;;;2.10;;
14760;SDS011;7472;45.396;5.272;2023-11-21T12:10:09;2.00;;;1.60;;
14760;SDS011;7472;45.396;5.272;2023-11-21T12:12:42;3.28;;;1.92;;
14760;SDS011;7472;45.396;5.272;2023-11-21T12:15:10;2.75;;;1.67;;
14760;SDS011;7472;45.396;5.272;2023-11-21T12:17:38;3.13;;;1.83;;
14760;SDS011;7472;45.396;5.272;2023-11-21T12:20:05;2.47;;;1.98;;
14760;SDS011;7472;45.396;5.272;2023-11-21T12:22:41;1.85;;;1.17;;
14760;SDS011;7472;45.396;5.272;2023-11-21T12:25:09;6.32;;;2.30;;
14760;SDS011;7472;45.396;5.272;2023-11-21T12:27:41;2.63;;;2.17;;
14760;SDS011;7472;45.396;5.272;2023-11-21T12:30:09;1.77;;;1.55;;
14760;SDS011;7472;45.396;5.272;2023-11-21T12:32:38;2.95;;;1.90;;
14760;SDS011;7472;45.396;5.272;2023-11-21T12:35:07;2.90;;;2.13;;
14760;SDS011;7472;45.396;5.272;2023-11-21T12:37:35;2.25;;;1.88;;
14760;SDS011;7472;45.396;5.272;2023-11-21T12:40:05;2.33;;;1.80;;
14760;SDS011;7472;45.396;5.272;2023-11-21T12:42:36;3.33;;;1.70;;
14760;SDS011;7472;45.396;5.272;2023-11-21T12:45:07;3.40;;;1.75;;
14760;SDS011;7472;45.396;5.272;2023-11-21T12:47:39;4.55;;;1.52;;
14760;SDS011;7472;45.396;5.272;2023-11-21T12:50:07;1.95;;;1.40;;
14760;SDS011;7472;45.396;5.272;2023-11-21T12:52:39;1.75;;;1.65;;
14760;SDS011;7472;45.396;5.272;2023-11-21T12:55:08;2.20;;;0.93;;
14760;SDS011;7472;45.396;5.272;2023-11-21T12:57:40;4.47;;;2.05;;
14760;SDS011;7472;45.396;5.272;2023-11-21T13:00:08;3.08;;;1.85;;
14760;SDS011;7472;45.396;5.272;2023-11-21T13:02:40;5.97;;;2.20;;
14760;SDS011;7472;45.396;5.272;2023-11-21T13:05:08;2.33;;;2.10;;
14760;SDS011;7472;45.396;5.272;2023-11-21T13:07:46;2.30;;;2.10;;
14760;SDS011;7472;45.396;5.272;2023-11-21T13:10:17;3.97;;;1.92;;
14760;SDS011;7472;45.396;5.272;2023-11-21T13:12:44;2.17;;;1.85;;
14760;SDS011;7472;45.396;5.272;2023-11-21T13:15:13;3.33;;;2.17;;
14760;SDS011;7472;45.396;5.272;2023-11-21T13:17:42;1.48;;;1.33;;
14760;SDS011;7472;45.396;5.272;2023-11-21T13:20:10;3.58;;;1.83;;
14760;SDS011;7472;45.396;5.272;2023-11-21T13:22:44;6.63;;;2.10;;
14760;SDS011;7472;45.396;5.272;2023-11-21T13:25:12;1.85;;;1.30;;
14760;SDS011;7472;45.396;5.272;2023-11-21T13:27:41;2.13;;;1.30;;
14760;SDS011;7472;45.396;5.272;2023-11-21T13:30:10;1.63;;;1.52;;
14760;SDS011;7472;45.396;5.272;2023-11-21T13:32:40;2.40;;;1.70;;
14760;SDS011;7472;45.396;5.272;2023-11-21T13:35:08;2.35;;;1.85;;
14760;SDS011;7472;45.396;5.272;2023-11-21T13:37:46;2.35;;;1.80;;
14760;SDS011;7472;45.396;5.272;2023-11-21T13:40:16;2.42;;;1.80;;
14760;SDS011;7472;45.396;5.272;2023-11-21T13:42:48;5.88;;;1.30;;
14760;SDS011;7472;45.396;5.272;2023-11-21T13:45:19;2.40;;;1.88;;
14760;SDS011;7472;45.396;5.272;2023-11-21T13:47:48;1.75;;;1.63;;
14760;SDS011;7472;45.396;5.272;2023-11-21T13:50:17;1.73;;;1.38;;
14760;SDS011;7472;45.396;5.272;2023-11-21T13:52:48;1.80;;;1.50;;
14760;SDS011;7472;45.396;5.272;2023-11-21T13:55:16;2.15;;;1.38;;
14760;SDS011;7472;45.396;5.272;2023-11-21T13:57:44;2.55;;;1.52;;
14760;SDS011;7472;45.396;5.272;2023-11-21T14:00:16;3.50;;;1.48;;
14760;SDS011;7472;45.396;5.272;2023-11-21T14:03:06;1.38;;;1.27;;
14760;SDS011;7472;45.396;5.272;2023-11-21T14:05:42;1.30;;;1.10;;
14760;SDS011;7472;45.396;5.272;2023-11-21T14:08:12;2.67;;;1.80;;
14760;SDS011;7472;45.396;5.272;2023-11-21T14:10:42;2.67;;;1.80;;
14760;SDS011;7472;45.396;5.272;2023-11-21T14:13:12;1.80;;;1.50;;
14760;SDS011;7472;45.396;5.272;2023-11-21T14:15:43;2.25;;;1.50;;
14760;SDS011;7472;45.396;5.272;2023-11-21T14:18:16;2.50;;;2.03;;
14760;SDS011;7472;45.396;5.272;2023-11-21T14:20:51;7.50;;;1.17;;
14760;SDS011;7472;45.396;5.272;2023-11-21T14:23:18;2.28;;;1.30;;
14760;SDS011;7472;45.396;5.272;2023-11-21T14:25:46;3.83;;;1.35;;
14760;SDS011;7472;45.396;5.272;2023-11-21T14:28:15;1.95;;;1.75;;
14760;SDS011;7472;45.396;5.272;2023-11-21T14:30:43;2.00;;;1.35;;
14760;SDS011;7472;45.396;5.272;2023-11-21T14:33:11;2.33;;;1.80;;
14760;SDS011;7472;45.396;5.272;2023-11-21T14:35:41;3.88;;;1.80;;
14760;SDS011;7472;45.396;5.272;2023-11-21T14:38:09;15.05;;;13.55;;
14760;SDS011;7472;45.396;5.272;2023-11-21T14:40:39;5.75;;;5.13;;
14760;SDS011;7472;45.396;5.272;2023-11-21T14:43:06;4.82;;;4.40;;
14760;SDS011;7472;45.396;5.272;2023-11-21T14:45:34;6.15;;;5.70;;
14760;SDS011;7472;45.396;5.272;2023-11-21T14:48:02;6.93;;;6.32;;
14760;SDS011;7472;45.396;5.272;2023-11-21T14:50:40;3.90;;;3.50;;
14760;SDS011;7472;45.396;5.272;2023-11-21T14:53:31;3.78;;;2.80;;
14760;SDS011;7472;45.396;5.272;2023-11-21T14:56:18;4.13;;;3.08;;
14760;SDS011;7472;45.396;5.272;2023-11-21T14:58:52;2.85;;;2.63;;
14760;SDS011;7472;45.396;5.272;2023-11-21T15:01:18;2.33;;;2.13;;
14760;SDS011;7472;45.396;5.272;2023-11-21T15:04:01;1.80;;;1.38;;
14760;SDS011;7472;45.396;5.272;2023-11-21T15:06:31;3.10;;;2.80;;
14760;SDS011;7472;45.396;5.272;2023-11-21T15:08:57;2.03;;;1.92;;